createdAt,value
2019-04-21T00:00:54.169Z,101351.57
2019-04-21T00:06:08.884Z,101356.48
2019-04-21T00:11:18.556Z,101346.00
2019-04-21T00:16:04.939Z,101343.79
2019-04-21T00:21:15.129Z,101338.99
2019-04-21T00:26:24.070Z,101337.94
2019-04-21T00:31:30.905Z,101332.69
2019-04-21T00:36:22.632Z,101328.87
2019-04-21T00:41:43.695Z,101321.54
2019-04-21T00:46:42.762Z,101315.61
2019-04-21T00:52:24.966Z,101315.61
2019-04-21T00:57:24.754Z,101303.05
2019-04-21T01:02:24.905Z,101302.31
2019-04-21T01:07:26.774Z,101303.52
2019-04-21T01:12:34.977Z,101297.33
2019-04-21T01:17:38.883Z,101298.93
2019-04-21T01:22:16.711Z,101304.66
2019-04-21T01:27:39.766Z,101303.63
2019-04-21T01:32:43.655Z,101300.09
2019-04-21T01:37:49.749Z,101304.37
2019-04-21T01:42:53.956Z,101294.95
2019-04-21T01:47:50.645Z,101299.83
2019-04-21T01:53:02.360Z,101298.76
2019-04-21T01:58:09.744Z,101296.48
2019-04-21T02:03:34.391Z,101298.00
2019-04-21T02:08:23.181Z,101287.52
2019-04-21T02:13:23.499Z,101283.05
2019-04-21T02:18:28.054Z,101278.96
2019-04-21T02:23:43.956Z,101271.25
2019-04-21T02:33:58.296Z,101277.34
2019-04-21T02:59:23.360Z,101269.26
2019-04-21T03:04:47.515Z,101264.84
2019-04-21T03:09:43.212Z,101260.54
2019-04-21T03:14:56.088Z,101250.87
2019-04-21T03:29:59.404Z,101233.26
2019-04-21T03:35:37.294Z,101233.30
2019-04-21T03:45:12.621Z,101223.56
2019-04-21T03:50:11.438Z,101225.23
2019-04-21T03:55:51.448Z,101231.92
2019-04-21T04:06:24.537Z,101231.98
2019-04-21T04:26:37.379Z,101229.05
2019-04-21T04:31:45.574Z,101236.95
2019-04-21T04:36:59.280Z,101229.26
2019-04-21T04:42:27.103Z,101230.43
2019-04-21T04:47:10.351Z,101232.97
2019-04-21T04:57:33.869Z,101241.61
2019-04-21T05:07:29.807Z,101236.83
2019-04-21T05:12:22.752Z,101235.67
2019-04-21T05:27:46.916Z,101230.30
2019-04-21T05:33:05.392Z,101233.08
2019-04-21T05:38:10.210Z,101218.94
2019-04-21T05:43:25.995Z,101223.91
2019-04-21T05:48:37.709Z,101223.11
2019-04-21T05:53:56.068Z,101223.34
2019-04-21T05:58:43.682Z,101227.31
2019-04-21T06:03:49.268Z,101235.74
2019-04-21T06:08:49.718Z,101227.89
2019-04-21T06:19:00.490Z,101220.17
2019-04-21T06:24:03.831Z,101222.95
2019-04-21T06:29:09.106Z,101223.64
2019-04-21T06:34:21.472Z,101217.64
2019-04-21T06:39:28.337Z,101218.05
2019-04-21T06:44:48.237Z,101217.42
2019-04-21T06:49:32.184Z,101213.45
2019-04-21T06:54:44.708Z,101220.05
2019-04-21T06:59:38.332Z,101209.70
2019-04-21T07:04:46.924Z,101210.41
2019-04-21T07:09:52.874Z,101211.98
2019-04-21T07:14:55.871Z,101212.52
2019-04-21T07:19:57.435Z,101206.61
2019-04-21T07:24:57.041Z,101204.63
2019-04-21T07:30:06.691Z,101202.27
2019-04-21T07:40:05.183Z,101203.78
2019-04-21T07:45:09.142Z,101198.90
2019-04-21T07:50:28.630Z,101193.66
2019-04-21T08:00:36.894Z,101180.42
2019-04-21T08:05:43.991Z,101191.68
2019-04-21T08:10:40.783Z,101180.73
2019-04-21T08:15:44.109Z,101173.17
2019-04-21T08:20:47.912Z,101172.35
2019-04-21T08:26:03.355Z,101165.48
2019-04-21T08:31:04.848Z,101153.80
2019-04-21T08:41:11.081Z,101154.34
2019-04-21T08:46:13.889Z,101145.78
2019-04-21T08:56:37.219Z,101150.28
2019-04-21T09:01:48.952Z,101144.84
2019-04-21T09:11:53.847Z,101133.74
2019-04-21T09:16:56.489Z,101128.04
2019-04-21T09:22:20.806Z,101117.19
2019-04-21T09:27:03.472Z,101112.06
2019-04-21T09:31:56.299Z,101105.88
2019-04-21T09:37:16.513Z,101103.82
2019-04-21T09:42:04.701Z,101091.50
2019-04-21T09:47:08.711Z,101084.78
2019-04-21T09:52:16.117Z,101081.05
2019-04-21T09:57:27.596Z,101078.28
2019-04-21T10:02:32.830Z,101071.14
2019-04-21T10:07:31.053Z,101065.33
2019-04-21T10:12:28.689Z,101060.47
2019-04-21T10:17:35.047Z,101062.56
2019-04-21T10:22:37.289Z,101051.95
2019-04-21T10:27:39.399Z,101051.24
2019-04-21T10:32:42.683Z,101044.20
2019-04-21T10:37:58.196Z,101034.38
2019-04-21T10:42:49.968Z,101033.26
2019-04-21T10:47:52.835Z,101021.73
2019-04-21T10:53:17.022Z,101022.54
2019-04-21T10:58:40.482Z,101017.91
2019-04-21T11:04:07.477Z,101005.37
2019-04-21T11:09:10.750Z,101007.30
2019-04-21T11:14:13.479Z,100996.55
2019-04-21T11:19:15.927Z,100998.16
2019-04-21T11:24:18.289Z,100988.10
2019-04-21T11:29:21.230Z,100985.33
2019-04-21T11:34:25.074Z,100974.88
2019-04-21T11:39:44.562Z,100965.87
2019-04-21T11:44:37.230Z,100956.63
2019-04-21T11:49:39.428Z,100956.13
2019-04-21T11:54:42.701Z,100950.94
2019-04-21T11:59:45.882Z,100947.55
2019-04-21T12:04:47.891Z,100945.52
2019-04-21T12:09:51.217Z,100937.59
2019-04-21T12:14:54.208Z,100935.89
2019-04-21T12:19:56.920Z,100926.05
2019-04-21T12:24:58.991Z,100918.60
2019-04-21T12:30:02.052Z,100912.45
2019-04-21T12:35:06.012Z,100910.35
2019-04-21T12:40:08.962Z,100896.41
2019-04-21T12:45:13.315Z,100881.72
2019-04-21T12:50:16.941Z,100881.30
2019-04-21T12:55:19.738Z,100876.28
2019-04-21T13:00:22.832Z,100868.35
2019-04-21T13:05:25.454Z,100859.23
2019-04-21T13:10:30.537Z,100849.91
2019-04-21T13:15:33.663Z,100841.23
2019-04-21T13:20:35.985Z,100830.22
2019-04-21T13:25:38.181Z,100828.08
2019-04-21T13:30:40.262Z,100823.23
2019-04-21T13:35:44.790Z,100814.50
2019-04-21T13:41:13.094Z,100810.25
2019-04-21T13:53:43.879Z,100851.05
2019-04-21T13:58:46.305Z,100851.55
2019-04-21T14:03:49.424Z,100839.67
2019-04-21T14:08:52.512Z,100838.66
2019-04-21T14:13:54.540Z,100834.48
2019-04-21T14:18:57.210Z,100827.90
2019-04-21T14:23:59.543Z,100821.42
2019-04-21T14:29:01.750Z,100818.91
2019-04-21T14:58:12.874Z,100789.87
2019-04-21T15:03:16.052Z,100789.55
2019-04-21T15:08:19.289Z,100789.19
2019-04-21T15:13:21.837Z,100780.31
2019-04-21T15:18:26.431Z,100769.72
2019-04-21T15:23:30.552Z,100772.78
2019-04-21T15:28:35.742Z,100778.57
2019-04-21T15:33:39.064Z,100769.52
2019-04-21T15:38:41.371Z,100760.77
2019-04-21T15:43:44.775Z,100758.09
2019-04-21T15:48:47.159Z,100752.16
2019-04-21T15:53:49.938Z,100747.92
2019-04-21T15:59:10.526Z,100742.45
2019-04-21T16:04:12.699Z,100735.45
2019-04-21T16:09:18.603Z,100742.77
2019-04-21T16:14:18.785Z,100734.23
2019-04-21T16:19:20.811Z,100723.33
2019-04-21T16:24:23.401Z,100715.47
2019-04-21T16:29:27.033Z,100713.97
2019-04-21T16:34:40.385Z,100713.19
2019-04-21T16:39:33.572Z,100708.22
2019-04-21T16:44:36.799Z,100704.86
2019-04-21T16:49:40.009Z,100704.16
2019-04-21T16:54:44.108Z,100696.30
2019-04-21T16:59:50.704Z,100688.25
2019-04-21T17:04:54.027Z,100685.95
2019-04-21T17:09:56.872Z,100676.84
2019-04-21T17:15:15.202Z,100679.36
2019-04-21T17:20:15.908Z,100673.53
2019-04-21T17:25:10.534Z,100671.25
2019-04-21T17:30:13.079Z,100671.28
2019-04-21T17:35:16.666Z,100674.34
2019-04-21T17:40:22.309Z,100664.42
2019-04-21T17:45:24.544Z,100661.08
2019-04-21T17:50:56.570Z,100652.73
2019-04-21T17:56:20.666Z,100652.98
2019-04-21T18:01:26.562Z,100646.07
2019-04-21T18:06:35.172Z,100649.19
2019-04-21T18:11:42.462Z,100648.09
2019-04-21T18:16:31.596Z,100638.45
2019-04-21T18:21:40.194Z,100642.38
2019-04-21T18:26:47.965Z,100651.52
2019-04-21T18:31:48.693Z,100652.70
2019-04-21T18:36:55.516Z,100650.63
2019-04-21T18:42:37.421Z,100657.05
2019-04-21T18:47:59.418Z,100664.33
2019-04-21T18:53:04.841Z,100660.56
2019-04-21T18:57:58.732Z,100667.63
2019-04-21T19:03:04.114Z,100670.80
2019-04-21T19:08:20.939Z,100668.67
2019-04-21T19:13:44.461Z,100672.84
2019-04-21T19:18:39.743Z,100678.20
2019-04-21T19:23:45.374Z,100669.25
2019-04-21T19:28:48.378Z,100673.25
2019-04-21T19:33:37.558Z,100679.37
2019-04-21T19:38:45.686Z,100674.47
2019-04-21T19:43:52.173Z,100676.66
2019-04-21T19:49:04.311Z,100675.55
2019-04-21T19:53:53.795Z,100676.08
2019-04-21T19:58:47.501Z,100676.98
2019-04-21T20:03:55.545Z,100676.44
2019-04-21T20:09:13.825Z,100678.60
2019-04-21T20:19:08.529Z,100671.73
2019-04-21T20:24:11.078Z,100669.53
2019-04-21T20:29:29.896Z,100657.16
2019-04-21T20:34:34.259Z,100660.01
2019-04-21T20:39:24.212Z,100658.50
2019-04-21T20:44:45.132Z,100658.63
2019-04-21T20:49:35.226Z,100652.62
2019-04-21T20:54:45.553Z,100654.30
2019-04-21T20:59:44.433Z,100655.65
2019-04-21T21:04:45.736Z,100649.31
2019-04-21T21:10:04.461Z,100647.24
2019-04-21T21:14:57.786Z,100645.70
2019-04-21T21:20:16.250Z,100648.09
2019-04-21T21:25:23.528Z,100646.38
2019-04-21T21:30:14.358Z,100647.73
2019-04-21T21:35:17.845Z,100647.64
2019-04-21T21:40:28.027Z,100650.54
2019-04-21T21:45:17.750Z,100650.72
2019-04-21T21:50:23.598Z,100639.29
2019-04-21T21:55:21.478Z,100645.05
2019-04-21T22:00:26.222Z,100641.91
2019-04-21T22:05:39.121Z,100647.77
2019-04-21T22:10:35.058Z,100638.11
2019-04-21T22:15:37.683Z,100646.03
2019-04-21T22:20:54.827Z,100640.03
2019-04-21T22:25:45.799Z,100637.95
2019-04-21T22:30:51.875Z,100637.52
2019-04-21T22:35:57.989Z,100637.73
2019-04-21T22:41:10.068Z,100632.88
2019-04-21T22:46:01.500Z,100630.52
2019-04-21T22:51:07.256Z,100633.06
2019-04-21T22:56:14.922Z,100629.37
2019-04-21T23:01:13.043Z,100633.59
2019-04-21T23:06:21.218Z,100629.56
2019-04-21T23:11:19.850Z,100625.19
2019-04-21T23:16:28.090Z,100621.81
2019-04-21T23:21:45.814Z,100629.38
2019-04-21T23:26:43.492Z,100620.13
2019-04-21T23:31:57.267Z,100617.07
2019-04-21T23:36:48.296Z,100613.48
2019-04-21T23:41:47.944Z,100608.52
2019-04-21T23:46:51.077Z,100600.38
2019-04-21T23:51:58.031Z,100599.50
2019-04-21T23:56:54.164Z,100601.87
